South Wanatah, Indiana
Current Conditions -  °F | °C
As of 6:56 AM on Wednesday 22 Oct 2014 (Local Time) from KVPZ Reporting Station
Clear Clear  
Wind Chill: 32°   Ceiling: Unl
Heat Index: 32°   Visibility: 10mi
Dew Point: 31°   Wind: 3mph
Humidity: 96%   Direction: 50°NE
Pressure: 30.34"   Gusts: NA
Location:  41.4092°N, 86.8646°W
Report Text: KVPZ 221156Z AUTO 05003KT 10SM CLR 00/M01 A3034 RMK AO2 SLP278 T00001006 10033 20000 51013 TSNO
Loading
Personal Weather Stations






























Interactive Weather Map
Tropical Storm Tracking
New forecast layout! Learn more

10-Day Weather Forecast

Advertisements
Track Severe Weather on mobile